sensor_id;sensor_type;location;lat;lon;timestamp;P1;durP1;ratioP1;P2;durP2;ratioP2
77322;SDS011;66384;51.052;9.850;2023-05-07T00:00:09;22.30;;;14.30;;
77322;SDS011;66384;51.052;9.850;2023-05-07T00:02:41;23.70;;;14.70;;
77322;SDS011;66384;51.052;9.850;2023-05-07T00:05:11;22.80;;;14.50;;
77322;SDS011;66384;51.052;9.850;2023-05-07T00:07:40;22.90;;;14.70;;
77322;SDS011;66384;51.052;9.850;2023-05-07T00:10:10;21.70;;;14.10;;
77322;SDS011;66384;51.052;9.850;2023-05-07T00:12:40;27.10;;;16.10;;
77322;SDS011;66384;51.052;9.850;2023-05-07T00:15:09;28.10;;;15.90;;
77322;SDS011;66384;51.052;9.850;2023-05-07T00:17:39;23.70;;;15.10;;
77322;SDS011;66384;51.052;9.850;2023-05-07T00:20:09;24.40;;;15.10;;
77322;SDS011;66384;51.052;9.850;2023-05-07T00:22:39;28.60;;;16.70;;
77322;SDS011;66384;51.052;9.850;2023-05-07T00:25:08;23.00;;;14.30;;
77322;SDS011;66384;51.052;9.850;2023-05-07T00:27:38;28.30;;;17.80;;
77322;SDS011;66384;51.052;9.850;2023-05-07T00:30:07;26.70;;;15.50;;
77322;SDS011;66384;51.052;9.850;2023-05-07T00:32:37;25.60;;;15.90;;
77322;SDS011;66384;51.052;9.850;2023-05-07T00:35:08;35.70;;;19.90;;
77322;SDS011;66384;51.052;9.850;2023-05-07T00:37:37;29.30;;;18.40;;
77322;SDS011;66384;51.052;9.850;2023-05-07T00:40:07;36.20;;;19.90;;
77322;SDS011;66384;51.052;9.850;2023-05-07T00:42:37;33.20;;;18.70;;
77322;SDS011;66384;51.052;9.850;2023-05-07T00:45:07;34.80;;;18.70;;
77322;SDS011;66384;51.052;9.850;2023-05-07T00:47:37;38.50;;;22.10;;
77322;SDS011;66384;51.052;9.850;2023-05-07T00:50:07;35.80;;;18.60;;
77322;SDS011;66384;51.052;9.850;2023-05-07T00:52:38;37.20;;;21.50;;
77322;SDS011;66384;51.052;9.850;2023-05-07T00:55:08;34.30;;;19.70;;
77322;SDS011;66384;51.052;9.850;2023-05-07T01:00:08;41.50;;;23.50;;
77322;SDS011;66384;51.052;9.850;2023-05-07T01:02:39;34.80;;;19.10;;
77322;SDS011;66384;51.052;9.850;2023-05-07T01:05:09;33.40;;;18.30;;
77322;SDS011;66384;51.052;9.850;2023-05-07T01:07:41;34.30;;;19.80;;
77322;SDS011;66384;51.052;9.850;2023-05-07T01:10:11;38.50;;;21.60;;
77322;SDS011;66384;51.052;9.850;2023-05-07T01:12:41;34.20;;;19.50;;
77322;SDS011;66384;51.052;9.850;2023-05-07T01:15:13;34.10;;;20.00;;
77322;SDS011;66384;51.052;9.850;2023-05-07T01:17:43;39.30;;;21.00;;
77322;SDS011;66384;51.052;9.850;2023-05-07T01:20:13;36.80;;;21.20;;
77322;SDS011;66384;51.052;9.850;2023-05-07T01:22:42;40.80;;;23.00;;
77322;SDS011;66384;51.052;9.850;2023-05-07T01:25:12;31.50;;;17.60;;
77322;SDS011;66384;51.052;9.850;2023-05-07T01:27:42;36.20;;;21.80;;
77322;SDS011;66384;51.052;9.850;2023-05-07T01:30:12;35.70;;;22.00;;
77322;SDS011;66384;51.052;9.850;2023-05-07T01:32:43;36.20;;;21.70;;
77322;SDS011;66384;51.052;9.850;2023-05-07T01:35:16;36.90;;;19.30;;
77322;SDS011;66384;51.052;9.850;2023-05-07T01:37:50;30.00;;;17.80;;
77322;SDS011;66384;51.052;9.850;2023-05-07T01:40:20;34.30;;;17.70;;
77322;SDS011;66384;51.052;9.850;2023-05-07T01:42:50;28.90;;;16.50;;
77322;SDS011;66384;51.052;9.850;2023-05-07T01:45:20;35.00;;;18.50;;
77322;SDS011;66384;51.052;9.850;2023-05-07T01:47:50;34.10;;;18.60;;
77322;SDS011;66384;51.052;9.850;2023-05-07T01:50:21;40.30;;;20.50;;
77322;SDS011;66384;51.052;9.850;2023-05-07T01:52:50;33.10;;;18.10;;
77322;SDS011;66384;51.052;9.850;2023-05-07T01:55:20;30.60;;;16.90;;
77322;SDS011;66384;51.052;9.850;2023-05-07T01:57:49;33.20;;;17.60;;
77322;SDS011;66384;51.052;9.850;2023-05-07T02:00:20;37.20;;;22.00;;
77322;SDS011;66384;51.052;9.850;2023-05-07T02:02:50;28.50;;;16.00;;
77322;SDS011;66384;51.052;9.850;2023-05-07T02:05:20;37.00;;;20.50;;
77322;SDS011;66384;51.052;9.850;2023-05-07T02:07:49;34.60;;;19.40;;
77322;SDS011;66384;51.052;9.850;2023-05-07T02:10:18;36.30;;;21.60;;
77322;SDS011;66384;51.052;9.850;2023-05-07T02:12:47;32.10;;;19.10;;
77322;SDS011;66384;51.052;9.850;2023-05-07T02:15:17;33.50;;;19.40;;
77322;SDS011;66384;51.052;9.850;2023-05-07T02:17:59;34.30;;;19.20;;
77322;SDS011;66384;51.052;9.850;2023-05-07T02:22:57;31.10;;;16.60;;
77322;SDS011;66384;51.052;9.850;2023-05-07T02:25:27;30.50;;;15.70;;
77322;SDS011;66384;51.052;9.850;2023-05-07T02:27:56;31.00;;;16.20;;
77322;SDS011;66384;51.052;9.850;2023-05-07T02:30:26;32.10;;;18.00;;
77322;SDS011;66384;51.052;9.850;2023-05-07T02:32:56;31.50;;;17.90;;
77322;SDS011;66384;51.052;9.850;2023-05-07T02:35:25;35.60;;;19.80;;
77322;SDS011;66384;51.052;9.850;2023-05-07T02:37:54;33.70;;;17.90;;
77322;SDS011;66384;51.052;9.850;2023-05-07T02:40:23;30.60;;;16.40;;
77322;SDS011;66384;51.052;9.850;2023-05-07T02:42:53;30.70;;;16.80;;
77322;SDS011;66384;51.052;9.850;2023-05-07T02:45:22;36.30;;;19.60;;
77322;SDS011;66384;51.052;9.850;2023-05-07T02:47:51;29.80;;;16.80;;
77322;SDS011;66384;51.052;9.850;2023-05-07T02:50:21;39.20;;;22.40;;
77322;SDS011;66384;51.052;9.850;2023-05-07T02:52:51;29.60;;;17.10;;
77322;SDS011;66384;51.052;9.850;2023-05-07T02:55:20;33.40;;;18.00;;
77322;SDS011;66384;51.052;9.850;2023-05-07T02:57:49;37.60;;;19.80;;
77322;SDS011;66384;51.052;9.850;2023-05-07T03:00:20;33.10;;;18.40;;
77322;SDS011;66384;51.052;9.850;2023-05-07T03:05:17;33.30;;;17.40;;
77322;SDS011;66384;51.052;9.850;2023-05-07T03:07:47;38.10;;;21.50;;
77322;SDS011;66384;51.052;9.850;2023-05-07T03:10:16;39.10;;;21.50;;
77322;SDS011;66384;51.052;9.850;2023-05-07T03:12:45;34.60;;;18.60;;
77322;SDS011;66384;51.052;9.850;2023-05-07T03:15:15;38.20;;;20.60;;
77322;SDS011;66384;51.052;9.850;2023-05-07T03:17:44;40.30;;;21.10;;
77322;SDS011;66384;51.052;9.850;2023-05-07T03:20:13;34.90;;;18.70;;
77322;SDS011;66384;51.052;9.850;2023-05-07T03:22:43;32.10;;;17.10;;
77322;SDS011;66384;51.052;9.850;2023-05-07T03:25:12;35.00;;;18.30;;
77322;SDS011;66384;51.052;9.850;2023-05-07T03:27:42;37.70;;;20.30;;
77322;SDS011;66384;51.052;9.850;2023-05-07T03:30:12;29.30;;;16.00;;
77322;SDS011;66384;51.052;9.850;2023-05-07T03:32:41;33.70;;;17.90;;
77322;SDS011;66384;51.052;9.850;2023-05-07T03:35:11;39.00;;;21.90;;
77322;SDS011;66384;51.052;9.850;2023-05-07T03:37:40;36.20;;;19.60;;
77322;SDS011;66384;51.052;9.850;2023-05-07T03:40:10;34.80;;;18.10;;
77322;SDS011;66384;51.052;9.850;2023-05-07T03:42:40;40.30;;;22.40;;
77322;SDS011;66384;51.052;9.850;2023-05-07T03:45:09;32.40;;;18.50;;
77322;SDS011;66384;51.052;9.850;2023-05-07T03:47:39;37.90;;;20.00;;
77322;SDS011;66384;51.052;9.850;2023-05-07T03:50:09;33.50;;;18.60;;
77322;SDS011;66384;51.052;9.850;2023-05-07T03:52:38;30.60;;;16.70;;
77322;SDS011;66384;51.052;9.850;2023-05-07T03:55:08;35.20;;;19.00;;
77322;SDS011;66384;51.052;9.850;2023-05-07T03:57:37;31.20;;;15.70;;
77322;SDS011;66384;51.052;9.850;2023-05-07T04:00:07;31.20;;;18.70;;
77322;SDS011;66384;51.052;9.850;2023-05-07T04:02:37;35.40;;;18.40;;
77322;SDS011;66384;51.052;9.850;2023-05-07T04:05:07;35.90;;;18.30;;
77322;SDS011;66384;51.052;9.850;2023-05-07T04:07:37;28.00;;;16.00;;
77322;SDS011;66384;51.052;9.850;2023-05-07T04:10:07;37.10;;;18.20;;
77322;SDS011;66384;51.052;9.850;2023-05-07T04:12:37;28.00;;;16.00;;
77322;SDS011;66384;51.052;9.850;2023-05-07T04:15:07;29.60;;;16.60;;
77322;SDS011;66384;51.052;9.850;2023-05-07T04:20:06;28.80;;;14.90;;
77322;SDS011;66384;51.052;9.850;2023-05-07T04:22:36;35.90;;;18.30;;
77322;SDS011;66384;51.052;9.850;2023-05-07T04:25:07;31.00;;;16.10;;
77322;SDS011;66384;51.052;9.850;2023-05-07T04:27:37;31.80;;;15.90;;
77322;SDS011;66384;51.052;9.850;2023-05-07T04:30:07;27.40;;;13.70;;
77322;SDS011;66384;51.052;9.850;2023-05-07T04:32:38;26.00;;;13.30;;
77322;SDS011;66384;51.052;9.850;2023-05-07T04:35:08;30.40;;;15.70;;
77322;SDS011;66384;51.052;9.850;2023-05-07T04:37:37;33.60;;;17.10;;
77322;SDS011;66384;51.052;9.850;2023-05-07T04:40:07;28.20;;;13.10;;
77322;SDS011;66384;51.052;9.850;2023-05-07T04:42:37;31.20;;;15.70;;
77322;SDS011;66384;51.052;9.850;2023-05-07T04:45:07;28.20;;;14.20;;
77322;SDS011;66384;51.052;9.850;2023-05-07T04:47:38;25.50;;;12.70;;
77322;SDS011;66384;51.052;9.850;2023-05-07T04:50:09;29.40;;;14.30;;
77322;SDS011;66384;51.052;9.850;2023-05-07T04:52:38;32.10;;;17.30;;
77322;SDS011;66384;51.052;9.850;2023-05-07T04:55:08;26.10;;;13.40;;
77322;SDS011;66384;51.052;9.850;2023-05-07T04:57:38;26.10;;;13.80;;
77322;SDS011;66384;51.052;9.850;2023-05-07T05:00:08;32.00;;;16.20;;
77322;SDS011;66384;51.052;9.850;2023-05-07T05:02:40;34.70;;;16.80;;
77322;SDS011;66384;51.052;9.850;2023-05-07T05:05:10;32.00;;;15.60;;
77322;SDS011;66384;51.052;9.850;2023-05-07T05:07:39;24.70;;;13.30;;
77322;SDS011;66384;51.052;9.850;2023-05-07T05:10:08;23.40;;;12.50;;
77322;SDS011;66384;51.052;9.850;2023-05-07T05:12:38;30.00;;;15.10;;
77322;SDS011;66384;51.052;9.850;2023-05-07T05:15:08;25.50;;;12.80;;
77322;SDS011;66384;51.052;9.850;2023-05-07T05:17:38;33.70;;;17.60;;
77322;SDS011;66384;51.052;9.850;2023-05-07T05:20:08;31.80;;;14.90;;
77322;SDS011;66384;51.052;9.850;2023-05-07T05:25:07;39.50;;;17.10;;
77322;SDS011;66384;51.052;9.850;2023-05-07T05:27:36;36.50;;;17.00;;
77322;SDS011;66384;51.052;9.850;2023-05-07T05:30:07;29.30;;;14.50;;
77322;SDS011;66384;51.052;9.850;2023-05-07T05:35:05;27.30;;;13.10;;
77322;SDS011;66384;51.052;9.850;2023-05-07T05:37:35;37.10;;;16.70;;
77322;SDS011;66384;51.052;9.850;2023-05-07T05:40:05;28.70;;;13.70;;
77322;SDS011;66384;51.052;9.850;2023-05-07T05:42:35;29.20;;;14.60;;
77322;SDS011;66384;51.052;9.850;2023-05-07T05:45:06;32.90;;;14.60;;
77322;SDS011;66384;51.052;9.850;2023-05-07T05:47:37;29.90;;;15.50;;
77322;SDS011;66384;51.052;9.850;2023-05-07T05:50:07;28.80;;;12.90;;
77322;SDS011;66384;51.052;9.850;2023-05-07T05:52:36;34.60;;;18.20;;
77322;SDS011;66384;51.052;9.850;2023-05-07T05:55:08;29.20;;;13.10;;
77322;SDS011;66384;51.052;9.850;2023-05-07T05:57:37;26.70;;;12.60;;
77322;SDS011;66384;51.052;9.850;2023-05-07T06:00:08;33.40;;;16.40;;
77322;SDS011;66384;51.052;9.850;2023-05-07T06:02:38;28.80;;;13.50;;
77322;SDS011;66384;51.052;9.850;2023-05-07T06:05:09;25.20;;;12.90;;
77322;SDS011;66384;51.052;9.850;2023-05-07T06:07:38;32.50;;;14.70;;
77322;SDS011;66384;51.052;9.850;2023-05-07T06:10:08;27.80;;;14.50;;
77322;SDS011;66384;51.052;9.850;2023-05-07T06:12:37;25.60;;;11.40;;
77322;SDS011;66384;51.052;9.850;2023-05-07T06:15:07;25.50;;;13.00;;
77322;SDS011;66384;51.052;9.850;2023-05-07T06:17:39;26.20;;;13.20;;
77322;SDS011;66384;51.052;9.850;2023-05-07T06:20:08;28.10;;;13.20;;
77322;SDS011;66384;51.052;9.850;2023-05-07T06:22:38;26.30;;;13.00;;
77322;SDS011;66384;51.052;9.850;2023-05-07T06:25:08;30.50;;;15.40;;
77322;SDS011;66384;51.052;9.850;2023-05-07T06:27:38;29.30;;;14.20;;
77322;SDS011;66384;51.052;9.850;2023-05-07T06:30:07;30.30;;;14.10;;
77322;SDS011;66384;51.052;9.850;2023-05-07T06:32:37;27.90;;;12.50;;
77322;SDS011;66384;51.052;9.850;2023-05-07T06:35:08;25.90;;;13.00;;
77322;SDS011;66384;51.052;9.850;2023-05-07T06:37:38;27.50;;;14.00;;
77322;SDS011;66384;51.052;9.850;2023-05-07T06:40:09;32.40;;;14.20;;
77322;SDS011;66384;51.052;9.850;2023-05-07T06:42:39;33.00;;;14.80;;
77322;SDS011;66384;51.052;9.850;2023-05-07T06:45:09;28.80;;;13.90;;
77322;SDS011;66384;51.052;9.850;2023-05-07T06:47:39;28.40;;;13.20;;
77322;SDS011;66384;51.052;9.850;2023-05-07T06:50:09;27.60;;;12.40;;
77322;SDS011;66384;51.052;9.850;2023-05-07T06:52:38;25.50;;;12.90;;
77322;SDS011;66384;51.052;9.850;2023-05-07T06:55:08;19.30;;;11.00;;
77322;SDS011;66384;51.052;9.850;2023-05-07T06:57:38;24.80;;;12.20;;
77322;SDS011;66384;51.052;9.850;2023-05-07T07:00:08;26.60;;;12.80;;
77322;SDS011;66384;51.052;9.850;2023-05-07T07:02:39;28.80;;;14.30;;
77322;SDS011;66384;51.052;9.850;2023-05-07T07:05:08;22.10;;;10.90;;
77322;SDS011;66384;51.052;9.850;2023-05-07T07:07:38;26.40;;;13.60;;
77322;SDS011;66384;51.052;9.850;2023-05-07T07:10:08;23.00;;;11.70;;
77322;SDS011;66384;51.052;9.850;2023-05-07T07:12:38;23.80;;;13.30;;
77322;SDS011;66384;51.052;9.850;2023-05-07T07:15:08;23.70;;;12.50;;
77322;SDS011;66384;51.052;9.850;2023-05-07T07:17:38;24.90;;;14.00;;
77322;SDS011;66384;51.052;9.850;2023-05-07T07:20:08;22.90;;;12.80;;
77322;SDS011;66384;51.052;9.850;2023-05-07T07:25:06;19.80;;;10.70;;
77322;SDS011;66384;51.052;9.850;2023-05-07T07:27:37;22.20;;;12.50;;
77322;SDS011;66384;51.052;9.850;2023-05-07T07:30:07;21.70;;;11.80;;
77322;SDS011;66384;51.052;9.850;2023-05-07T07:32:37;20.20;;;11.40;;
77322;SDS011;66384;51.052;9.850;2023-05-07T07:35:07;16.90;;;10.20;;
77322;SDS011;66384;51.052;9.850;2023-05-07T07:37:37;18.00;;;9.70;;
77322;SDS011;66384;51.052;9.850;2023-05-07T07:40:08;17.70;;;11.10;;
77322;SDS011;66384;51.052;9.850;2023-05-07T07:42:38;21.30;;;11.40;;
77322;SDS011;66384;51.052;9.850;2023-05-07T07:45:08;20.10;;;11.30;;
77322;SDS011;66384;51.052;9.850;2023-05-07T07:47:38;18.70;;;10.40;;
77322;SDS011;66384;51.052;9.850;2023-05-07T07:50:08;14.70;;;9.00;;
77322;SDS011;66384;51.052;9.850;2023-05-07T07:52:38;16.80;;;9.80;;
77322;SDS011;66384;51.052;9.850;2023-05-07T07:55:08;17.90;;;10.20;;
77322;SDS011;66384;51.052;9.850;2023-05-07T07:57:38;15.40;;;9.10;;
77322;SDS011;66384;51.052;9.850;2023-05-07T08:00:08;18.30;;;11.00;;
77322;SDS011;66384;51.052;9.850;2023-05-07T08:02:39;18.30;;;11.00;;
77322;SDS011;66384;51.052;9.850;2023-05-07T08:05:08;15.20;;;8.90;;
77322;SDS011;66384;51.052;9.850;2023-05-07T08:07:38;13.50;;;8.10;;
77322;SDS011;66384;51.052;9.850;2023-05-07T08:10:07;13.50;;;8.80;;
77322;SDS011;66384;51.052;9.850;2023-05-07T08:12:37;15.00;;;9.20;;
77322;SDS011;66384;51.052;9.850;2023-05-07T08:15:08;13.60;;;8.50;;
77322;SDS011;66384;51.052;9.850;2023-05-07T08:17:38;15.70;;;8.40;;
77322;SDS011;66384;51.052;9.850;2023-05-07T08:20:08;16.30;;;9.80;;
77322;SDS011;66384;51.052;9.850;2023-05-07T08:22:38;13.50;;;8.50;;
77322;SDS011;66384;51.052;9.850;2023-05-07T08:25:07;13.70;;;9.10;;
77322;SDS011;66384;51.052;9.850;2023-05-07T08:27:37;13.00;;;8.60;;
77322;SDS011;66384;51.052;9.850;2023-05-07T08:30:08;15.50;;;9.90;;
77322;SDS011;66384;51.052;9.850;2023-05-07T08:32:38;15.60;;;8.60;;
77322;SDS011;66384;51.052;9.850;2023-05-07T08:35:08;14.60;;;8.20;;
77322;SDS011;66384;51.052;9.850;2023-05-07T08:37:38;12.10;;;7.00;;
77322;SDS011;66384;51.052;9.850;2023-05-07T08:40:07;14.70;;;9.30;;
77322;SDS011;66384;51.052;9.850;2023-05-07T08:42:37;13.00;;;7.80;;
77322;SDS011;66384;51.052;9.850;2023-05-07T08:45:09;11.60;;;7.10;;
77322;SDS011;66384;51.052;9.850;2023-05-07T08:47:41;11.20;;;7.40;;
77322;SDS011;66384;51.052;9.850;2023-05-07T08:50:12;13.20;;;8.60;;
77322;SDS011;66384;51.052;9.850;2023-05-07T08:52:42;10.80;;;7.00;;
77322;SDS011;66384;51.052;9.850;2023-05-07T08:55:11;10.30;;;7.30;;
77322;SDS011;66384;51.052;9.850;2023-05-07T08:57:42;10.20;;;6.90;;
77322;SDS011;66384;51.052;9.850;2023-05-07T09:00:12;10.70;;;6.70;;
77322;SDS011;66384;51.052;9.850;2023-05-07T09:02:42;9.10;;;6.00;;
77322;SDS011;66384;51.052;9.850;2023-05-07T09:05:12;12.60;;;7.90;;
77322;SDS011;66384;51.052;9.850;2023-05-07T09:07:41;16.90;;;11.00;;
77322;SDS011;66384;51.052;9.850;2023-05-07T09:10:11;16.60;;;11.20;;
77322;SDS011;66384;51.052;9.850;2023-05-07T09:12:40;10.60;;;7.20;;
77322;SDS011;66384;51.052;9.850;2023-05-07T09:15:11;15.90;;;9.10;;
77322;SDS011;66384;51.052;9.850;2023-05-07T09:17:41;9.90;;;6.00;;
77322;SDS011;66384;51.052;9.850;2023-05-07T09:20:11;10.90;;;7.30;;
77322;SDS011;66384;51.052;9.850;2023-05-07T09:22:40;15.80;;;9.40;;
77322;SDS011;66384;51.052;9.850;2023-05-07T09:25:10;12.80;;;8.80;;
77322;SDS011;66384;51.052;9.850;2023-05-07T09:27:40;10.20;;;6.80;;
77322;SDS011;66384;51.052;9.850;2023-05-07T09:30:11;14.00;;;8.80;;
77322;SDS011;66384;51.052;9.850;2023-05-07T09:35:13;12.40;;;8.00;;
77322;SDS011;66384;51.052;9.850;2023-05-07T09:37:44;10.40;;;6.30;;
77322;SDS011;66384;51.052;9.850;2023-05-07T09:40:21;7.80;;;6.00;;
77322;SDS011;66384;51.052;9.850;2023-05-07T09:42:51;14.10;;;8.80;;
77322;SDS011;66384;51.052;9.850;2023-05-07T09:45:23;10.20;;;7.10;;
77322;SDS011;66384;51.052;9.850;2023-05-07T09:47:55;11.30;;;6.90;;
77322;SDS011;66384;51.052;9.850;2023-05-07T09:50:26;12.60;;;8.30;;
77322;SDS011;66384;51.052;9.850;2023-05-07T09:52:59;16.70;;;10.70;;
77322;SDS011;66384;51.052;9.850;2023-05-07T09:57:58;11.50;;;7.40;;
77322;SDS011;66384;51.052;9.850;2023-05-07T10:00:29;9.50;;;7.00;;
77322;SDS011;66384;51.052;9.850;2023-05-07T10:02:59;10.10;;;7.30;;
77322;SDS011;66384;51.052;9.850;2023-05-07T10:05:30;10.20;;;6.40;;
77322;SDS011;66384;51.052;9.850;2023-05-07T10:08:00;10.50;;;7.00;;
77322;SDS011;66384;51.052;9.850;2023-05-07T10:10:30;10.00;;;7.00;;
77322;SDS011;66384;51.052;9.850;2023-05-07T10:13:01;10.00;;;6.90;;
77322;SDS011;66384;51.052;9.850;2023-05-07T10:15:32;9.90;;;5.90;;
77322;SDS011;66384;51.052;9.850;2023-05-07T10:18:02;10.40;;;7.10;;
77322;SDS011;66384;51.052;9.850;2023-05-07T10:20:33;11.70;;;8.30;;
77322;SDS011;66384;51.052;9.850;2023-05-07T10:23:04;11.90;;;7.30;;
77322;SDS011;66384;51.052;9.850;2023-05-07T10:28:03;13.50;;;8.50;;
77322;SDS011;66384;51.052;9.850;2023-05-07T10:30:38;10.80;;;6.90;;
77322;SDS011;66384;51.052;9.850;2023-05-07T10:33:15;9.40;;;6.00;;
77322;SDS011;66384;51.052;9.850;2023-05-07T10:35:47;9.50;;;6.50;;
77322;SDS011;66384;51.052;9.850;2023-05-07T10:38:17;10.80;;;7.50;;
77322;SDS011;66384;51.052;9.850;2023-05-07T10:40:47;11.60;;;7.60;;
77322;SDS011;66384;51.052;9.850;2023-05-07T10:43:17;12.30;;;7.40;;
77322;SDS011;66384;51.052;9.850;2023-05-07T10:45:54;11.30;;;7.40;;
77322;SDS011;66384;51.052;9.850;2023-05-07T10:51:39;9.10;;;7.20;;
77322;SDS011;66384;51.052;9.850;2023-05-07T10:56:51;12.60;;;9.70;;
77322;SDS011;66384;51.052;9.850;2023-05-07T10:59:34;13.90;;;9.00;;
77322;SDS011;66384;51.052;9.850;2023-05-07T11:02:10;12.20;;;8.00;;
77322;SDS011;66384;51.052;9.850;2023-05-07T11:04:40;12.50;;;8.60;;
77322;SDS011;66384;51.052;9.850;2023-05-07T11:07:26;10.70;;;7.20;;
77322;SDS011;66384;51.052;9.850;2023-05-07T11:09:59;12.30;;;7.80;;
77322;SDS011;66384;51.052;9.850;2023-05-07T11:12:50;10.90;;;7.80;;
77322;SDS011;66384;51.052;9.850;2023-05-07T11:15:37;12.70;;;8.60;;
77322;SDS011;66384;51.052;9.850;2023-05-07T11:18:11;15.00;;;9.30;;
77322;SDS011;66384;51.052;9.850;2023-05-07T11:20:49;14.70;;;9.20;;
77322;SDS011;66384;51.052;9.850;2023-05-07T11:26:27;13.60;;;9.00;;
77322;SDS011;66384;51.052;9.850;2023-05-07T11:28:58;10.60;;;7.50;;
77322;SDS011;66384;51.052;9.850;2023-05-07T11:31:27;11.70;;;7.50;;
77322;SDS011;66384;51.052;9.850;2023-05-07T11:33:58;11.10;;;7.80;;
77322;SDS011;66384;51.052;9.850;2023-05-07T11:36:30;11.70;;;7.80;;
77322;SDS011;66384;51.052;9.850;2023-05-07T11:39:00;13.20;;;8.50;;
77322;SDS011;66384;51.052;9.850;2023-05-07T11:41:36;14.00;;;9.10;;
77322;SDS011;66384;51.052;9.850;2023-05-07T11:44:05;13.10;;;9.10;;
77322;SDS011;66384;51.052;9.850;2023-05-07T11:46:35;11.90;;;8.00;;
77322;SDS011;66384;51.052;9.850;2023-05-07T11:49:04;16.00;;;11.90;;
77322;SDS011;66384;51.052;9.850;2023-05-07T11:51:34;17.40;;;11.20;;
77322;SDS011;66384;51.052;9.850;2023-05-07T11:54:04;12.70;;;9.20;;
77322;SDS011;66384;51.052;9.850;2023-05-07T11:56:35;13.10;;;9.30;;
77322;SDS011;66384;51.052;9.850;2023-05-07T11:59:04;11.30;;;8.40;;
77322;SDS011;66384;51.052;9.850;2023-05-07T12:01:34;14.30;;;9.10;;
77322;SDS011;66384;51.052;9.850;2023-05-07T12:04:04;10.20;;;7.80;;
77322;SDS011;66384;51.052;9.850;2023-05-07T12:06:37;13.70;;;9.80;;
77322;SDS011;66384;51.052;9.850;2023-05-07T12:09:06;14.60;;;10.90;;
77322;SDS011;66384;51.052;9.850;2023-05-07T12:11:37;12.60;;;8.40;;
77322;SDS011;66384;51.052;9.850;2023-05-07T12:14:07;13.50;;;9.20;;
77322;SDS011;66384;51.052;9.850;2023-05-07T12:16:36;14.00;;;9.90;;
77322;SDS011;66384;51.052;9.850;2023-05-07T12:19:07;17.30;;;12.20;;
77322;SDS011;66384;51.052;9.850;2023-05-07T12:21:38;15.30;;;10.30;;
77322;SDS011;66384;51.052;9.850;2023-05-07T12:24:08;14.80;;;9.90;;
77322;SDS011;66384;51.052;9.850;2023-05-07T12:26:38;13.20;;;9.40;;
77322;SDS011;66384;51.052;9.850;2023-05-07T12:29:08;14.10;;;10.30;;
77322;SDS011;66384;51.052;9.850;2023-05-07T12:31:37;11.10;;;8.00;;
77322;SDS011;66384;51.052;9.850;2023-05-07T12:34:09;12.10;;;8.60;;
77322;SDS011;66384;51.052;9.850;2023-05-07T12:36:39;12.90;;;8.50;;
77322;SDS011;66384;51.052;9.850;2023-05-07T12:39:09;12.60;;;8.90;;
77322;SDS011;66384;51.052;9.850;2023-05-07T12:44:36;18.50;;;12.50;;
77322;SDS011;66384;51.052;9.850;2023-05-07T12:47:05;15.20;;;10.20;;
77322;SDS011;66384;51.052;9.850;2023-05-07T12:49:35;20.30;;;8.90;;
77322;SDS011;66384;51.052;9.850;2023-05-07T12:52:05;13.20;;;9.50;;
77322;SDS011;66384;51.052;9.850;2023-05-07T12:54:35;13.10;;;8.20;;
77322;SDS011;66384;51.052;9.850;2023-05-07T12:57:06;13.00;;;9.20;;
77322;SDS011;66384;51.052;9.850;2023-05-07T12:59:38;15.40;;;11.30;;
77322;SDS011;66384;51.052;9.850;2023-05-07T13:02:08;13.00;;;9.00;;
77322;SDS011;66384;51.052;9.850;2023-05-07T13:04:38;11.90;;;8.90;;
77322;SDS011;66384;51.052;9.850;2023-05-07T13:07:07;13.70;;;9.00;;
77322;SDS011;66384;51.052;9.850;2023-05-07T13:09:36;12.20;;;8.90;;
77322;SDS011;66384;51.052;9.850;2023-05-07T13:12:06;12.50;;;9.40;;
77322;SDS011;66384;51.052;9.850;2023-05-07T13:14:35;12.90;;;8.60;;
77322;SDS011;66384;51.052;9.850;2023-05-07T13:17:04;12.20;;;9.20;;
77322;SDS011;66384;51.052;9.850;2023-05-07T13:19:34;12.20;;;9.20;;
77322;SDS011;66384;51.052;9.850;2023-05-07T13:22:03;13.30;;;9.30;;
77322;SDS011;66384;51.052;9.850;2023-05-07T13:24:33;13.10;;;9.60;;
77322;SDS011;66384;51.052;9.850;2023-05-07T13:27:02;12.50;;;9.20;;
77322;SDS011;66384;51.052;9.850;2023-05-07T13:29:31;11.50;;;8.40;;
77322;SDS011;66384;51.052;9.850;2023-05-07T13:32:01;13.00;;;9.10;;
77322;SDS011;66384;51.052;9.850;2023-05-07T13:34:30;12.20;;;8.80;;
77322;SDS011;66384;51.052;9.850;2023-05-07T13:36:59;12.00;;;9.60;;
77322;SDS011;66384;51.052;9.850;2023-05-07T13:39:29;12.30;;;9.90;;
77322;SDS011;66384;51.052;9.850;2023-05-07T13:41:58;12.50;;;9.50;;
77322;SDS011;66384;51.052;9.850;2023-05-07T13:44:27;11.50;;;9.60;;
77322;SDS011;66384;51.052;9.850;2023-05-07T13:46:56;14.50;;;10.70;;
77322;SDS011;66384;51.052;9.850;2023-05-07T13:49:27;13.30;;;10.00;;
77322;SDS011;66384;51.052;9.850;2023-05-07T13:51:56;12.70;;;9.10;;
77322;SDS011;66384;51.052;9.850;2023-05-07T13:54:25;10.90;;;7.80;;
77322;SDS011;66384;51.052;9.850;2023-05-07T13:56:55;12.20;;;9.80;;
77322;SDS011;66384;51.052;9.850;2023-05-07T13:59:24;12.50;;;9.20;;
77322;SDS011;66384;51.052;9.850;2023-05-07T14:01:53;13.60;;;9.60;;
77322;SDS011;66384;51.052;9.850;2023-05-07T14:04:22;13.10;;;9.10;;
77322;SDS011;66384;51.052;9.850;2023-05-07T14:06:51;11.90;;;9.30;;
77322;SDS011;66384;51.052;9.850;2023-05-07T14:09:21;10.90;;;8.30;;
77322;SDS011;66384;51.052;9.850;2023-05-07T14:11:50;11.60;;;8.30;;
77322;SDS011;66384;51.052;9.850;2023-05-07T14:14:19;12.80;;;9.30;;
77322;SDS011;66384;51.052;9.850;2023-05-07T14:16:48;14.50;;;10.90;;
77322;SDS011;66384;51.052;9.850;2023-05-07T14:19:18;13.00;;;8.90;;
77322;SDS011;66384;51.052;9.850;2023-05-07T14:21:49;16.20;;;12.50;;
77322;SDS011;66384;51.052;9.850;2023-05-07T14:24:18;13.30;;;9.50;;
77322;SDS011;66384;51.052;9.850;2023-05-07T14:26:47;11.50;;;9.50;;
77322;SDS011;66384;51.052;9.850;2023-05-07T14:29:16;14.30;;;11.40;;
77322;SDS011;66384;51.052;9.850;2023-05-07T14:31:46;14.80;;;12.20;;
77322;SDS011;66384;51.052;9.850;2023-05-07T14:34:15;12.00;;;8.90;;
77322;SDS011;66384;51.052;9.850;2023-05-07T14:36:44;11.80;;;8.50;;
77322;SDS011;66384;51.052;9.850;2023-05-07T14:39:13;12.30;;;9.20;;
77322;SDS011;66384;51.052;9.850;2023-05-07T14:41:43;11.00;;;8.80;;
77322;SDS011;66384;51.052;9.850;2023-05-07T14:44:12;14.50;;;10.60;;
77322;SDS011;66384;51.052;9.850;2023-05-07T14:46:41;12.30;;;9.10;;
77322;SDS011;66384;51.052;9.850;2023-05-07T14:49:10;13.60;;;10.80;;
77322;SDS011;66384;51.052;9.850;2023-05-07T14:51:43;12.70;;;9.70;;
77322;SDS011;66384;51.052;9.850;2023-05-07T14:54:13;11.30;;;8.80;;
77322;SDS011;66384;51.052;9.850;2023-05-07T14:56:42;12.10;;;9.70;;
77322;SDS011;66384;51.052;9.850;2023-05-07T14:59:12;13.60;;;9.30;;
77322;SDS011;66384;51.052;9.850;2023-05-07T15:01:43;10.60;;;8.70;;
77322;SDS011;66384;51.052;9.850;2023-05-07T15:04:13;12.70;;;9.50;;
77322;SDS011;66384;51.052;9.850;2023-05-07T15:06:42;11.40;;;9.00;;
77322;SDS011;66384;51.052;9.850;2023-05-07T15:09:12;12.30;;;9.10;;
77322;SDS011;66384;51.052;9.850;2023-05-07T15:11:41;9.70;;;8.10;;
77322;SDS011;66384;51.052;9.850;2023-05-07T15:14:10;11.70;;;8.90;;
77322;SDS011;66384;51.052;9.850;2023-05-07T15:16:40;11.90;;;9.00;;
77322;SDS011;66384;51.052;9.850;2023-05-07T15:19:09;8.60;;;7.70;;
77322;SDS011;66384;51.052;9.850;2023-05-07T15:21:41;10.60;;;8.70;;